createdAt,value
2022-07-28T00:04:46.934Z,1.40
2022-07-28T00:10:50.370Z,1.60
2022-07-28T00:16:55.197Z,1.60
2022-07-28T00:22:58.605Z,1.40
2022-07-28T00:29:01.970Z,1.60
2022-07-28T00:35:08.328Z,1.58
2022-07-28T00:41:12.378Z,1.90
2022-07-28T00:47:15.786Z,1.90
2022-07-28T00:53:20.548Z,1.90
2022-07-28T00:59:23.913Z,2.35
2022-07-28T01:05:43.788Z,2.30
2022-07-28T01:11:55.200Z,2.00
2022-07-28T01:18:04.363Z,2.60
2022-07-28T01:24:12.317Z,2.28
2022-07-28T01:30:32.028Z,1.92
2022-07-28T01:36:40.448Z,2.28
2022-07-28T01:42:46.573Z,2.20
2022-07-28T01:48:53.546Z,2.38
2022-07-28T01:54:58.549Z,2.60
2022-07-28T02:01:02.467Z,2.33
2022-07-28T02:07:07.807Z,2.55
2022-07-28T02:13:11.998Z,2.67
2022-07-28T02:19:16.159Z,2.40
2022-07-28T02:25:21.035Z,2.80
2022-07-28T02:31:27.851Z,2.72
2022-07-28T02:37:34.950Z,2.97
2022-07-28T02:43:48.999Z,2.95
2022-07-28T02:49:54.301Z,2.67
2022-07-28T02:55:58.380Z,3.13
2022-07-28T03:02:03.269Z,3.00
2022-07-28T03:08:06.830Z,3.70
2022-07-28T03:14:10.405Z,3.05
2022-07-28T03:20:15.446Z,3.53
2022-07-28T03:26:21.248Z,2.53
2022-07-28T03:32:25.728Z,2.85
2022-07-28T03:38:34.597Z,2.60
2022-07-28T03:44:39.559Z,2.65
2022-07-28T03:50:42.970Z,2.58
2022-07-28T03:56:47.757Z,2.72
2022-07-28T04:02:51.517Z,2.78
2022-07-28T04:08:56.209Z,2.78
2022-07-28T04:15:00.957Z,3.25
2022-07-28T04:21:04.439Z,3.13
2022-07-28T04:27:08.578Z,3.10
2022-07-28T04:33:13.466Z,2.90
2022-07-28T04:39:16.847Z,2.90
2022-07-28T04:45:20.403Z,2.40
2022-07-28T04:51:25.181Z,2.85
2022-07-28T04:57:30.079Z,2.47
2022-07-28T05:03:36.295Z,2.50
2022-07-28T05:09:41.336Z,2.53
2022-07-28T05:15:44.706Z,2.55
2022-07-28T05:21:48.693Z,2.33
2022-07-28T05:27:54.185Z,2.50
2022-07-28T05:33:57.561Z,2.33
2022-07-28T05:40:00.957Z,2.42
2022-07-28T05:46:06.148Z,2.33
2022-07-28T05:52:09.580Z,2.63
2022-07-28T05:58:12.952Z,2.53
2022-07-28T06:04:27.026Z,2.95
2022-07-28T06:10:52.738Z,2.58
2022-07-28T06:16:56.146Z,2.67
2022-07-28T06:23:00.916Z,3.15
2022-07-28T06:29:04.297Z,2.95
2022-07-28T06:35:08.382Z,2.40
2022-07-28T06:41:13.427Z,3.03
2022-07-28T06:47:16.915Z,3.10
2022-07-28T06:53:20.437Z,2.50
2022-07-28T06:59:25.427Z,2.72
2022-07-28T07:05:31.956Z,3.25
2022-07-28T07:11:35.807Z,2.80
2022-07-28T07:17:42.035Z,2.50
2022-07-28T07:23:45.754Z,2.38
2022-07-28T07:29:49.077Z,2.47
2022-07-28T07:35:53.836Z,2.60
2022-07-28T07:41:57.575Z,2.33
2022-07-28T07:48:02.125Z,2.40
2022-07-28T07:54:07.025Z,2.30
2022-07-28T08:00:29.256Z,1.92
2022-07-28T08:06:33.027Z,2.33
2022-07-28T08:12:40.719Z,2.20
2022-07-28T08:18:44.887Z,2.05
2022-07-28T08:24:48.357Z,2.30
2022-07-28T08:30:53.187Z,2.28
2022-07-28T08:36:56.715Z,2.53
2022-07-28T08:43:03.226Z,1.83
2022-07-28T08:49:10.450Z,2.40
2022-07-28T08:55:19.551Z,2.20
2022-07-28T09:01:24.750Z,2.22
2022-07-28T09:07:44.432Z,2.42
2022-07-28T09:13:53.570Z,2.00
2022-07-28T09:19:57.634Z,2.40
2022-07-28T09:26:12.019Z,1.48
2022-07-28T09:32:16.232Z,2.42
2022-07-28T09:38:20.250Z,1.88
2022-07-28T09:44:26.297Z,1.85
2022-07-28T09:50:31.028Z,2.10
2022-07-28T09:56:34.503Z,1.88
2022-07-28T10:02:40.097Z,2.17
2022-07-28T10:08:44.818Z,1.80
2022-07-28T10:14:48.876Z,2.13
2022-07-28T10:20:53.841Z,1.60
2022-07-28T10:26:58.520Z,1.58
2022-07-28T10:33:04.670Z,2.03
2022-07-28T10:39:14.313Z,1.70
2022-07-28T10:45:18.297Z,1.90
2022-07-28T10:51:22.987Z,2.20
2022-07-28T10:57:33.556Z,1.88
2022-07-28T11:03:42.879Z,1.80
2022-07-28T11:09:47.798Z,2.00
2022-07-28T11:15:52.656Z,2.00
2022-07-28T11:22:13.228Z,1.73
2022-07-28T11:28:18.365Z,2.20
2022-07-28T11:34:23.755Z,1.70
2022-07-28T11:40:31.024Z,1.60
2022-07-28T11:46:38.613Z,2.35
2022-07-28T11:52:53.797Z,1.52
2022-07-28T11:58:58.543Z,1.92
2022-07-28T12:05:10.085Z,1.85
2022-07-28T12:11:15.104Z,1.88
2022-07-28T12:17:18.464Z,1.75
2022-07-28T12:23:39.367Z,2.13
2022-07-28T12:29:58.849Z,2.38
2022-07-28T12:36:02.402Z,2.20
2022-07-28T12:42:07.766Z,1.70
2022-07-28T12:48:14.032Z,2.00
2022-07-28T12:54:17.939Z,2.10
2022-07-28T13:00:23.080Z,2.70
2022-07-28T13:06:27.828Z,2.22
2022-07-28T13:12:31.660Z,2.50
2022-07-28T13:18:41.769Z,2.45
2022-07-28T13:24:46.589Z,2.65
2022-07-28T13:30:49.986Z,2.47
2022-07-28T13:36:53.481Z,2.40
2022-07-28T13:42:58.306Z,2.67
2022-07-28T13:49:02.612Z,2.60
2022-07-28T13:55:07.069Z,2.20
2022-07-28T14:01:11.959Z,2.03
2022-07-28T14:07:20.915Z,2.22
2022-07-28T14:13:31.402Z,2.05
2022-07-28T14:19:39.082Z,1.75
2022-07-28T14:25:49.130Z,2.25
2022-07-28T14:31:54.939Z,2.45
2022-07-28T14:44:24.290Z,2.20
2022-07-28T14:50:28.475Z,2.25
2022-07-28T14:56:33.398Z,1.90
2022-07-28T15:02:36.892Z,2.50
2022-07-28T15:08:40.382Z,2.15
2022-07-28T15:14:45.308Z,2.15
2022-07-28T15:20:49.846Z,2.45
2022-07-28T15:26:53.246Z,2.25
2022-07-28T15:32:59.133Z,1.90
2022-07-28T15:39:03.126Z,2.00
2022-07-28T15:45:11.692Z,2.03
2022-07-28T15:51:16.836Z,2.13
2022-07-28T15:57:20.621Z,2.33
2022-07-28T16:03:27.024Z,2.28
2022-07-28T16:09:45.772Z,2.75
2022-07-28T16:15:50.480Z,2.70
2022-07-28T16:21:54.154Z,2.35
2022-07-28T16:27:58.972Z,2.70
2022-07-28T16:34:02.346Z,2.25
2022-07-28T16:40:06.581Z,3.03
2022-07-28T16:46:12.051Z,3.00
2022-07-28T16:52:15.722Z,2.20
2022-07-28T16:58:20.063Z,2.72
2022-07-28T17:04:25.102Z,3.13
2022-07-28T17:10:28.532Z,2.15
2022-07-28T17:16:32.190Z,2.28
2022-07-28T17:22:37.263Z,2.13
2022-07-28T17:28:41.270Z,2.10
2022-07-28T17:34:44.743Z,2.25
2022-07-28T17:40:51.155Z,1.80
2022-07-28T17:46:54.868Z,2.10
2022-07-28T17:52:58.253Z,1.52
2022-07-28T17:59:03.046Z,1.63
2022-07-28T18:05:10.098Z,2.80
2022-07-28T18:11:14.859Z,2.20
2022-07-28T18:17:19.694Z,2.00
2022-07-28T18:23:23.402Z,1.90
2022-07-28T18:29:38.265Z,1.60
2022-07-28T18:35:43.685Z,1.63
2022-07-28T18:41:48.002Z,1.98
2022-07-28T18:47:51.554Z,1.92
2022-07-28T18:53:56.358Z,2.60
2022-07-28T18:59:59.741Z,1.90
2022-07-28T19:06:03.191Z,1.85
2022-07-28T19:12:08.518Z,1.20
2022-07-28T19:18:12.263Z,1.50
2022-07-28T19:24:16.501Z,1.38
2022-07-28T19:30:21.970Z,1.48
2022-07-28T19:36:26.144Z,1.20
2022-07-28T19:42:31.571Z,1.70
2022-07-28T19:48:36.480Z,1.48
2022-07-28T19:54:39.954Z,1.30
2022-07-28T20:00:45.943Z,1.33
2022-07-28T20:06:55.650Z,1.70
2022-07-28T20:12:59.244Z,1.40
2022-07-28T20:19:02.849Z,1.77
2022-07-28T20:25:09.569Z,1.90
2022-07-28T20:31:16.786Z,1.67
2022-07-28T20:37:36.974Z,1.55
2022-07-28T20:43:42.385Z,1.70
2022-07-28T20:49:45.776Z,1.83
2022-07-28T20:55:49.173Z,1.88
2022-07-28T21:01:54.186Z,1.65
2022-07-28T21:07:59.888Z,2.00
2022-07-28T21:14:08.935Z,2.17
2022-07-28T21:20:14.589Z,2.05
2022-07-28T21:26:18.334Z,1.80
2022-07-28T21:32:21.759Z,1.90
2022-07-28T21:38:26.589Z,1.92
2022-07-28T21:44:30.043Z,1.88
2022-07-28T21:50:33.461Z,1.70
2022-07-28T21:56:38.196Z,1.75
2022-07-28T22:02:41.962Z,2.10
2022-07-28T22:08:45.554Z,1.98
2022-07-28T22:14:50.302Z,1.70
2022-07-28T22:20:54.322Z,2.28
2022-07-28T22:26:57.773Z,2.00
2022-07-28T22:33:02.814Z,2.08
2022-07-28T22:39:06.467Z,2.00
2022-07-28T22:45:10.688Z,1.90
2022-07-28T22:51:15.920Z,2.08
2022-07-28T22:57:19.376Z,2.17
2022-07-28T23:03:23.065Z,2.22
2022-07-28T23:09:27.982Z,2.00
2022-07-28T23:15:39.567Z,2.15
2022-07-28T23:21:45.353Z,2.40
2022-07-28T23:27:50.178Z,2.05
2022-07-28T23:33:56.372Z,2.30
2022-07-28T23:40:00.806Z,2.70
2022-07-28T23:46:05.653Z,2.55
2022-07-28T23:52:09.265Z,2.75
2022-07-28T23:58:12.770Z,2.72
